sensor_id;sensor_type;location;lat;lon;timestamp;temperature;humidity
37310;DHT22;23195;47.744;7.358;2022-07-29T00:06:18;21.70;99.90
37310;DHT22;23195;47.744;7.358;2022-07-29T00:17:36;21.70;99.90
37310;DHT22;23195;47.744;7.358;2022-07-29T00:20:39;21.70;99.90
37310;DHT22;23195;47.744;7.358;2022-07-29T00:23:31;20.30;99.90
37310;DHT22;23195;47.744;7.358;2022-07-29T00:26:24;21.70;99.90
37310;DHT22;23195;47.744;7.358;2022-07-29T00:29:15;21.70;99.90
37310;DHT22;23195;47.744;7.358;2022-07-29T00:35:18;21.70;99.90
37310;DHT22;23195;47.744;7.358;2022-07-29T00:41:11;21.60;99.90
37310;DHT22;23195;47.744;7.358;2022-07-29T00:50:39;21.50;99.90
37310;DHT22;23195;47.744;7.358;2022-07-29T00:53:34;21.40;99.90
37310;DHT22;23195;47.744;7.358;2022-07-29T00:56:18;21.40;99.90
37310;DHT22;23195;47.744;7.358;2022-07-29T00:58:58;21.30;99.90
37310;DHT22;23195;47.744;7.358;2022-07-29T01:05:17;20.90;99.90
37310;DHT22;23195;47.744;7.358;2022-07-29T01:08:14;21.20;99.90
37310;DHT22;23195;47.744;7.358;2022-07-29T01:11:23;21.30;99.90
37310;DHT22;23195;47.744;7.358;2022-07-29T01:14:29;21.20;99.90
37310;DHT22;23195;47.744;7.358;2022-07-29T01:34:08;20.70;99.90
37310;DHT22;23195;47.744;7.358;2022-07-29T01:40:49;20.90;99.90
37310;DHT22;23195;47.744;7.358;2022-07-29T01:47:19;20.90;99.90
37310;DHT22;23195;47.744;7.358;2022-07-29T01:50:07;21.30;99.90
37310;DHT22;23195;47.744;7.358;2022-07-29T01:53:09;20.70;99.90
37310;DHT22;23195;47.744;7.358;2022-07-29T01:56:03;19.40;99.90
37310;DHT22;23195;47.744;7.358;2022-07-29T01:58:41;21.00;99.90
37310;DHT22;23195;47.744;7.358;2022-07-29T02:04:40;20.80;99.90
37310;DHT22;23195;47.744;7.358;2022-07-29T02:10:54;20.80;99.90
37310;DHT22;23195;47.744;7.358;2022-07-29T02:13:37;20.60;99.90
37310;DHT22;23195;47.744;7.358;2022-07-29T02:16:30;20.80;99.90
37310;DHT22;23195;47.744;7.358;2022-07-29T02:22:11;20.70;99.90
37310;DHT22;23195;47.744;7.358;2022-07-29T02:39:03;20.10;99.90
37310;DHT22;23195;47.744;7.358;2022-07-29T02:44:46;20.30;99.90
37310;DHT22;23195;47.744;7.358;2022-07-29T02:47:25;20.20;99.90
37310;DHT22;23195;47.744;7.358;2022-07-29T02:50:41;20.20;99.90
37310;DHT22;23195;47.744;7.358;2022-07-29T02:53:31;20.10;99.90
37310;DHT22;23195;47.744;7.358;2022-07-29T02:56:30;20.10;99.90
37310;DHT22;23195;47.744;7.358;2022-07-29T02:59:20;20.00;99.90
37310;DHT22;23195;47.744;7.358;2022-07-29T03:02:38;20.00;99.90
37310;DHT22;23195;47.744;7.358;2022-07-29T03:05:17;19.90;99.90
37310;DHT22;23195;47.744;7.358;2022-07-29T03:14:36;19.70;99.90
37310;DHT22;23195;47.744;7.358;2022-07-29T03:17:29;19.80;99.90
37310;DHT22;23195;47.744;7.358;2022-07-29T03:20:00;19.70;99.90
37310;DHT22;23195;47.744;7.358;2022-07-29T03:22:32;19.80;99.90
37310;DHT22;23195;47.744;7.358;2022-07-29T03:25:25;19.80;99.90
37310;DHT22;23195;47.744;7.358;2022-07-29T03:28:15;19.70;99.90
37310;DHT22;23195;47.744;7.358;2022-07-29T03:34:04;19.10;99.90
37310;DHT22;23195;47.744;7.358;2022-07-29T03:37:09;19.70;99.90
37310;DHT22;23195;47.744;7.358;2022-07-29T03:43:10;19.70;99.90
37310;DHT22;23195;47.744;7.358;2022-07-29T03:46:12;19.70;99.90
37310;DHT22;23195;47.744;7.358;2022-07-29T03:49:32;19.80;99.90
37310;DHT22;23195;47.744;7.358;2022-07-29T03:55:18;20.00;99.90
37310;DHT22;23195;47.744;7.358;2022-07-29T03:58:01;20.00;99.90
37310;DHT22;23195;47.744;7.358;2022-07-29T04:07:34;20.20;99.90
37310;DHT22;23195;47.744;7.358;2022-07-29T04:13:30;20.40;99.90
37310;DHT22;23195;47.744;7.358;2022-07-29T04:16:15;20.30;99.90
37310;DHT22;23195;47.744;7.358;2022-07-29T04:18:54;20.30;99.90
37310;DHT22;23195;47.744;7.358;2022-07-29T04:24:58;20.40;99.90
37310;DHT22;23195;47.744;7.358;2022-07-29T04:27:33;20.50;99.90
37310;DHT22;23195;47.744;7.358;2022-07-29T04:30:06;20.40;99.90
37310;DHT22;23195;47.744;7.358;2022-07-29T04:32:34;20.40;99.90
37310;DHT22;23195;47.744;7.358;2022-07-29T04:35:05;20.50;99.90
37310;DHT22;23195;47.744;7.358;2022-07-29T04:37:37;20.60;99.90
37310;DHT22;23195;47.744;7.358;2022-07-29T04:40:26;20.60;99.90
37310;DHT22;23195;47.744;7.358;2022-07-29T04:42:56;20.60;99.90
37310;DHT22;23195;47.744;7.358;2022-07-29T04:45:33;20.60;99.90
37310;DHT22;23195;47.744;7.358;2022-07-29T04:48:01;20.60;99.90
37310;DHT22;23195;47.744;7.358;2022-07-29T04:50:33;20.70;99.90
37310;DHT22;23195;47.744;7.358;2022-07-29T04:53:22;21.10;99.90
37310;DHT22;23195;47.744;7.358;2022-07-29T04:55:51;20.70;99.90
37310;DHT22;23195;47.744;7.358;2022-07-29T04:58:20;20.70;99.90
37310;DHT22;23195;47.744;7.358;2022-07-29T05:00:56;20.80;99.90
37310;DHT22;23195;47.744;7.358;2022-07-29T05:03:31;20.80;99.90
37310;DHT22;23195;47.744;7.358;2022-07-29T05:06:13;20.80;99.90
37310;DHT22;23195;47.744;7.358;2022-07-29T05:08:59;21.00;99.90
37310;DHT22;23195;47.744;7.358;2022-07-29T05:11:28;21.00;99.90
37310;DHT22;23195;47.744;7.358;2022-07-29T05:14:06;21.10;99.90
37310;DHT22;23195;47.744;7.358;2022-07-29T05:16:51;21.10;99.90
37310;DHT22;23195;47.744;7.358;2022-07-29T05:19:26;20.30;99.90
37310;DHT22;23195;47.744;7.358;2022-07-29T05:21:54;21.20;99.90
37310;DHT22;23195;47.744;7.358;2022-07-29T05:24:20;21.30;99.90
37310;DHT22;23195;47.744;7.358;2022-07-29T05:26:57;21.30;99.90
37310;DHT22;23195;47.744;7.358;2022-07-29T05:29:26;21.30;99.90
37310;DHT22;23195;47.744;7.358;2022-07-29T05:32:01;21.30;99.90
37310;DHT22;23195;47.744;7.358;2022-07-29T05:34:27;22.20;99.90
37310;DHT22;23195;47.744;7.358;2022-07-29T05:36:53;21.30;99.90
37310;DHT22;23195;47.744;7.358;2022-07-29T05:39:19;21.30;99.90
37310;DHT22;23195;47.744;7.358;2022-07-29T05:41:54;21.30;99.90
37310;DHT22;23195;47.744;7.358;2022-07-29T05:44:40;21.30;99.90
37310;DHT22;23195;47.744;7.358;2022-07-29T05:47:14;20.50;99.90
37310;DHT22;23195;47.744;7.358;2022-07-29T05:49:43;21.40;99.90
37310;DHT22;23195;47.744;7.358;2022-07-29T05:52:09;21.70;99.90
37310;DHT22;23195;47.744;7.358;2022-07-29T05:54:46;21.80;99.90
37310;DHT22;23195;47.744;7.358;2022-07-29T05:57:19;21.80;99.90
37310;DHT22;23195;47.744;7.358;2022-07-29T05:59:45;21.70;99.90
37310;DHT22;23195;47.744;7.358;2022-07-29T06:02:11;21.60;99.90
37310;DHT22;23195;47.744;7.358;2022-07-29T06:04:42;21.60;99.90
37310;DHT22;23195;47.744;7.358;2022-07-29T06:07:11;21.50;99.90
37310;DHT22;23195;47.744;7.358;2022-07-29T06:09:37;21.50;99.90
37310;DHT22;23195;47.744;7.358;2022-07-29T06:12:22;21.60;99.90
37310;DHT22;23195;47.744;7.358;2022-07-29T06:18:39;21.50;99.90
37310;DHT22;23195;47.744;7.358;2022-07-29T06:21:28;20.80;99.90
37310;DHT22;23195;47.744;7.358;2022-07-29T06:24:20;22.50;99.90
37310;DHT22;23195;47.744;7.358;2022-07-29T06:26:46;22.70;99.90
37310;DHT22;23195;47.744;7.358;2022-07-29T06:32:47;22.90;99.90
37310;DHT22;23195;47.744;7.358;2022-07-29T06:43:07;22.40;99.90
37310;DHT22;23195;47.744;7.358;2022-07-29T06:45:54;22.40;99.90
37310;DHT22;23195;47.744;7.358;2022-07-29T06:48:34;22.40;99.90
37310;DHT22;23195;47.744;7.358;2022-07-29T06:54:04;22.80;99.90
37310;DHT22;23195;47.744;7.358;2022-07-29T06:56:41;22.70;99.90
37310;DHT22;23195;47.744;7.358;2022-07-29T06:59:11;22.60;99.90
37310;DHT22;23195;47.744;7.358;2022-07-29T07:01:46;22.70;99.90
37310;DHT22;23195;47.744;7.358;2022-07-29T07:04:23;22.70;99.90
37310;DHT22;23195;47.744;7.358;2022-07-29T07:06:59;22.70;99.90
37310;DHT22;23195;47.744;7.358;2022-07-29T07:09:43;22.50;99.90
37310;DHT22;23195;47.744;7.358;2022-07-29T07:12:09;22.50;99.90
37310;DHT22;23195;47.744;7.358;2022-07-29T07:14:44;22.50;99.90
37310;DHT22;23195;47.744;7.358;2022-07-29T07:17:10;22.60;99.90
37310;DHT22;23195;47.744;7.358;2022-07-29T07:19:36;22.70;99.90
37310;DHT22;23195;47.744;7.358;2022-07-29T07:22:05;22.70;99.90
37310;DHT22;23195;47.744;7.358;2022-07-29T07:24:31;22.60;99.90
37310;DHT22;23195;47.744;7.358;2022-07-29T07:26:59;22.60;99.90
37310;DHT22;23195;47.744;7.358;2022-07-29T07:29:25;22.60;99.90
37310;DHT22;23195;47.744;7.358;2022-07-29T07:31:51;22.80;99.90
37310;DHT22;23195;47.744;7.358;2022-07-29T07:34:17;23.00;99.90
37310;DHT22;23195;47.744;7.358;2022-07-29T07:36:43;23.40;99.90
37310;DHT22;23195;47.744;7.358;2022-07-29T07:39:09;23.60;99.90
37310;DHT22;23195;47.744;7.358;2022-07-29T07:41:35;23.80;99.90
37310;DHT22;23195;47.744;7.358;2022-07-29T07:44:01;24.00;99.90
37310;DHT22;23195;47.744;7.358;2022-07-29T07:46:27;24.20;99.90
37310;DHT22;23195;47.744;7.358;2022-07-29T07:48:59;24.70;99.90
37310;DHT22;23195;47.744;7.358;2022-07-29T07:51:25;24.80;99.90
37310;DHT22;23195;47.744;7.358;2022-07-29T07:53:54;25.20;99.90
37310;DHT22;23195;47.744;7.358;2022-07-29T07:56:31;25.00;99.90
37310;DHT22;23195;47.744;7.358;2022-07-29T07:59:03;24.90;99.90
37310;DHT22;23195;47.744;7.358;2022-07-29T08:01:34;24.80;99.90
37310;DHT22;23195;47.744;7.358;2022-07-29T08:04:00;24.60;99.90
37310;DHT22;23195;47.744;7.358;2022-07-29T08:06:33;24.60;99.90
37310;DHT22;23195;47.744;7.358;2022-07-29T08:09:26;24.80;99.90
37310;DHT22;23195;47.744;7.358;2022-07-29T08:11:55;24.90;99.90
37310;DHT22;23195;47.744;7.358;2022-07-29T08:14:24;25.50;99.90
37310;DHT22;23195;47.744;7.358;2022-07-29T08:17:00;26.00;99.60
37310;DHT22;23195;47.744;7.358;2022-07-29T08:19:26;26.70;98.20
37310;DHT22;23195;47.744;7.358;2022-07-29T08:21:57;27.10;97.60
37310;DHT22;23195;47.744;7.358;2022-07-29T08:28:17;27.40;96.50
37310;DHT22;23195;47.744;7.358;2022-07-29T08:30:56;27.20;96.10
37310;DHT22;23195;47.744;7.358;2022-07-29T08:33:25;26.90;96.30
37310;DHT22;23195;47.744;7.358;2022-07-29T08:35:51;26.70;96.40
37310;DHT22;23195;47.744;7.358;2022-07-29T08:41:38;26.40;96.80
37310;DHT22;23195;47.744;7.358;2022-07-29T08:44:04;26.30;96.90
37310;DHT22;23195;47.744;7.358;2022-07-29T08:46:30;26.20;97.10
37310;DHT22;23195;47.744;7.358;2022-07-29T08:48:56;26.10;97.10
37310;DHT22;23195;47.744;7.358;2022-07-29T08:51:33;25.80;97.40
37310;DHT22;23195;47.744;7.358;2022-07-29T08:54:01;26.50;97.30
37310;DHT22;23195;47.744;7.358;2022-07-29T08:56:27;26.40;97.00
37310;DHT22;23195;47.744;7.358;2022-07-29T08:59:01;26.80;96.40
37310;DHT22;23195;47.744;7.358;2022-07-29T09:01:29;26.90;95.70
37310;DHT22;23195;47.744;7.358;2022-07-29T09:03:59;26.90;96.20
37310;DHT22;23195;47.744;7.358;2022-07-29T09:06:31;27.30;95.60
37310;DHT22;23195;47.744;7.358;2022-07-29T09:09:01;27.00;95.80
37310;DHT22;23195;47.744;7.358;2022-07-29T09:11:27;26.90;96.10
37310;DHT22;23195;47.744;7.358;2022-07-29T09:13:56;27.10;96.20
37310;DHT22;23195;47.744;7.358;2022-07-29T09:16:48;27.10;96.20
37310;DHT22;23195;47.744;7.358;2022-07-29T09:22:31;27.40;95.40
37310;DHT22;23195;47.744;7.358;2022-07-29T09:25:01;27.40;94.80
37310;DHT22;23195;47.744;7.358;2022-07-29T09:27:33;27.60;95.20
37310;DHT22;23195;47.744;7.358;2022-07-29T09:30:06;27.70;95.20
37310;DHT22;23195;47.744;7.358;2022-07-29T09:32:56;27.70;94.80
37310;DHT22;23195;47.744;7.358;2022-07-29T09:35:39;27.50;94.90
37310;DHT22;23195;47.744;7.358;2022-07-29T09:38:14;27.60;95.40
37310;DHT22;23195;47.744;7.358;2022-07-29T09:40:56;27.50;95.30
37310;DHT22;23195;47.744;7.358;2022-07-29T09:43:30;27.70;95.40
37310;DHT22;23195;47.744;7.358;2022-07-29T09:46:17;27.50;95.20
37310;DHT22;23195;47.744;7.358;2022-07-29T09:48:43;27.30;95.20
37310;DHT22;23195;47.744;7.358;2022-07-29T09:51:19;27.30;95.40
37310;DHT22;23195;47.744;7.358;2022-07-29T09:53:51;27.20;95.20
37310;DHT22;23195;47.744;7.358;2022-07-29T09:56:17;27.40;95.20
37310;DHT22;23195;47.744;7.358;2022-07-29T09:58:43;27.60;94.80
37310;DHT22;23195;47.744;7.358;2022-07-29T10:01:31;27.80;94.60
37310;DHT22;23195;47.744;7.358;2022-07-29T10:04:00;28.00;94.30
37310;DHT22;23195;47.744;7.358;2022-07-29T10:06:26;28.00;94.00
37310;DHT22;23195;47.744;7.358;2022-07-29T10:08:55;28.00;93.50
37310;DHT22;23195;47.744;7.358;2022-07-29T10:11:35;28.40;93.90
37310;DHT22;23195;47.744;7.358;2022-07-29T10:14:03;28.50;93.20
37310;DHT22;23195;47.744;7.358;2022-07-29T10:16:36;28.60;93.10
37310;DHT22;23195;47.744;7.358;2022-07-29T10:19:05;28.60;93.20
37310;DHT22;23195;47.744;7.358;2022-07-29T10:21:34;28.70;93.30
37310;DHT22;23195;47.744;7.358;2022-07-29T10:24:00;28.80;92.80
37310;DHT22;23195;47.744;7.358;2022-07-29T10:26:26;28.70;92.40
37310;DHT22;23195;47.744;7.358;2022-07-29T10:28:52;28.70;92.50
37310;DHT22;23195;47.744;7.358;2022-07-29T10:31:29;28.60;92.70
37310;DHT22;23195;47.744;7.358;2022-07-29T10:37:24;28.40;92.90
37310;DHT22;23195;47.744;7.358;2022-07-29T10:40:05;28.50;93.00
37310;DHT22;23195;47.744;7.358;2022-07-29T10:42:54;28.60;92.80
37310;DHT22;23195;47.744;7.358;2022-07-29T10:45:23;28.60;92.80
37310;DHT22;23195;47.744;7.358;2022-07-29T10:48:03;28.30;93.00
37310;DHT22;23195;47.744;7.358;2022-07-29T10:50:53;28.00;93.40
37310;DHT22;23195;47.744;7.358;2022-07-29T10:53:21;27.70;93.80
37310;DHT22;23195;47.744;7.358;2022-07-29T10:55:56;27.50;94.20
37310;DHT22;23195;47.744;7.358;2022-07-29T10:58:23;27.30;94.70
37310;DHT22;23195;47.744;7.358;2022-07-29T11:00:51;27.30;95.00
37310;DHT22;23195;47.744;7.358;2022-07-29T11:03:48;27.10;95.10
37310;DHT22;23195;47.744;7.358;2022-07-29T11:06:24;27.10;95.30
37310;DHT22;23195;47.744;7.358;2022-07-29T11:09:20;26.90;95.80
37310;DHT22;23195;47.744;7.358;2022-07-29T11:11:47;26.90;96.00
37310;DHT22;23195;47.744;7.358;2022-07-29T11:14:14;27.00;96.00
37310;DHT22;23195;47.744;7.358;2022-07-29T11:17:05;26.90;95.90
37310;DHT22;23195;47.744;7.358;2022-07-29T11:19:33;26.90;96.20
37310;DHT22;23195;47.744;7.358;2022-07-29T11:22:11;26.80;95.90
37310;DHT22;23195;47.744;7.358;2022-07-29T11:24:38;27.00;95.90
37310;DHT22;23195;47.744;7.358;2022-07-29T11:27:16;26.90;95.60
37310;DHT22;23195;47.744;7.358;2022-07-29T11:30:00;27.00;95.80
37310;DHT22;23195;47.744;7.358;2022-07-29T11:32:36;26.90;96.10
37310;DHT22;23195;47.744;7.358;2022-07-29T11:44:05;26.90;96.60
37310;DHT22;23195;47.744;7.358;2022-07-29T11:46:50;26.70;96.90
37310;DHT22;23195;47.744;7.358;2022-07-29T11:49:26;26.40;96.90
37310;DHT22;23195;47.744;7.358;2022-07-29T11:51:56;26.40;97.10
37310;DHT22;23195;47.744;7.358;2022-07-29T11:54:31;26.40;97.70
37310;DHT22;23195;47.744;7.358;2022-07-29T11:56:58;26.40;97.30
37310;DHT22;23195;47.744;7.358;2022-07-29T11:59:25;26.20;97.60
37310;DHT22;23195;47.744;7.358;2022-07-29T12:01:54;26.10;96.90
37310;DHT22;23195;47.744;7.358;2022-07-29T12:04:24;25.80;96.70
37310;DHT22;23195;47.744;7.358;2022-07-29T12:06:53;25.70;97.20
37310;DHT22;23195;47.744;7.358;2022-07-29T12:09:22;25.60;97.30
37310;DHT22;23195;47.744;7.358;2022-07-29T12:12:01;25.30;97.10
37310;DHT22;23195;47.744;7.358;2022-07-29T12:14:31;25.40;96.70
37310;DHT22;23195;47.744;7.358;2022-07-29T12:17:00;25.40;97.20
37310;DHT22;23195;47.744;7.358;2022-07-29T12:19:44;25.40;96.90
37310;DHT22;23195;47.744;7.358;2022-07-29T12:22:27;25.30;96.60
37310;DHT22;23195;47.744;7.358;2022-07-29T12:24:54;25.00;97.20
37310;DHT22;23195;47.744;7.358;2022-07-29T12:27:23;25.30;96.60
37310;DHT22;23195;47.744;7.358;2022-07-29T12:30:33;25.40;96.40
37310;DHT22;23195;47.744;7.358;2022-07-29T12:33:11;25.10;96.30
37310;DHT22;23195;47.744;7.358;2022-07-29T12:35:47;25.00;96.40
37310;DHT22;23195;47.744;7.358;2022-07-29T12:38:16;24.60;96.10
37310;DHT22;23195;47.744;7.358;2022-07-29T12:40:52;25.20;95.80
37310;DHT22;23195;47.744;7.358;2022-07-29T12:43:22;25.30;95.60
37310;DHT22;23195;47.744;7.358;2022-07-29T12:46:11;25.30;95.30
37310;DHT22;23195;47.744;7.358;2022-07-29T12:48:42;25.50;95.20
37310;DHT22;23195;47.744;7.358;2022-07-29T12:51:09;25.60;95.30
37310;DHT22;23195;47.744;7.358;2022-07-29T12:53:40;25.60;95.20
37310;DHT22;23195;47.744;7.358;2022-07-29T12:56:15;25.50;95.10
37310;DHT22;23195;47.744;7.358;2022-07-29T12:58:49;25.00;95.60
37310;DHT22;23195;47.744;7.358;2022-07-29T13:01:16;25.30;95.90
37310;DHT22;23195;47.744;7.358;2022-07-29T13:03:45;25.60;96.10
37310;DHT22;23195;47.744;7.358;2022-07-29T13:06:38;25.70;95.90
37310;DHT22;23195;47.744;7.358;2022-07-29T13:09:17;25.80;96.20
37310;DHT22;23195;47.744;7.358;2022-07-29T13:11:51;25.90;95.90
37310;DHT22;23195;47.744;7.358;2022-07-29T13:14:37;26.10;95.90
37310;DHT22;23195;47.744;7.358;2022-07-29T13:17:27;26.20;95.50
37310;DHT22;23195;47.744;7.358;2022-07-29T13:20:10;26.20;95.50
37310;DHT22;23195;47.744;7.358;2022-07-29T13:22:47;26.40;95.10
37310;DHT22;23195;47.744;7.358;2022-07-29T13:25:13;26.40;95.00
37310;DHT22;23195;47.744;7.358;2022-07-29T13:27:41;26.40;94.70
37310;DHT22;23195;47.744;7.358;2022-07-29T13:30:12;26.70;94.90
37310;DHT22;23195;47.744;7.358;2022-07-29T13:33:01;26.60;94.50
37310;DHT22;23195;47.744;7.358;2022-07-29T13:35:36;26.80;94.60
37310;DHT22;23195;47.744;7.358;2022-07-29T13:38:16;26.70;94.80
37310;DHT22;23195;47.744;7.358;2022-07-29T13:40:42;26.80;94.50
37310;DHT22;23195;47.744;7.358;2022-07-29T13:43:12;26.70;94.30
37310;DHT22;23195;47.744;7.358;2022-07-29T13:45:50;26.30;94.20
37310;DHT22;23195;47.744;7.358;2022-07-29T13:48:17;26.20;94.40
37310;DHT22;23195;47.744;7.358;2022-07-29T13:50:43;26.10;94.20
37310;DHT22;23195;47.744;7.358;2022-07-29T13:53:12;26.10;94.10
37310;DHT22;23195;47.744;7.358;2022-07-29T13:55:40;26.20;94.30
37310;DHT22;23195;47.744;7.358;2022-07-29T13:58:21;26.40;94.00
37310;DHT22;23195;47.744;7.358;2022-07-29T14:00:57;26.40;93.10
37310;DHT22;23195;47.744;7.358;2022-07-29T14:03:45;26.60;93.10
37310;DHT22;23195;47.744;7.358;2022-07-29T14:06:10;26.70;92.80
37310;DHT22;23195;47.744;7.358;2022-07-29T14:08:36;27.00;92.20
37310;DHT22;23195;47.744;7.358;2022-07-29T14:11:08;27.00;91.30
37310;DHT22;23195;47.744;7.358;2022-07-29T14:13:37;27.10;91.30
37310;DHT22;23195;47.744;7.358;2022-07-29T14:16:03;27.10;91.30
37310;DHT22;23195;47.744;7.358;2022-07-29T14:18:38;27.10;91.20
37310;DHT22;23195;47.744;7.358;2022-07-29T14:21:06;27.20;91.30
37310;DHT22;23195;47.744;7.358;2022-07-29T14:23:44;27.00;90.80
37310;DHT22;23195;47.744;7.358;2022-07-29T14:26:10;26.90;90.90
37310;DHT22;23195;47.744;7.358;2022-07-29T14:28:36;27.00;90.90
37310;DHT22;23195;47.744;7.358;2022-07-29T14:31:02;26.90;90.50
37310;DHT22;23195;47.744;7.358;2022-07-29T14:33:45;27.00;90.90
37310;DHT22;23195;47.744;7.358;2022-07-29T14:36:13;27.10;90.30
37310;DHT22;23195;47.744;7.358;2022-07-29T14:38:48;26.90;90.00
37310;DHT22;23195;47.744;7.358;2022-07-29T14:41:14;26.90;90.20
37310;DHT22;23195;47.744;7.358;2022-07-29T14:43:39;27.10;90.10
37310;DHT22;23195;47.744;7.358;2022-07-29T14:46:08;27.00;88.50
37310;DHT22;23195;47.744;7.358;2022-07-29T14:48:34;27.20;88.40
37310;DHT22;23195;47.744;7.358;2022-07-29T14:51:00;27.20;87.90
37310;DHT22;23195;47.744;7.358;2022-07-29T14:53:37;27.30;87.70
37310;DHT22;23195;47.744;7.358;2022-07-29T14:56:06;27.30;87.20
37310;DHT22;23195;47.744;7.358;2022-07-29T14:58:32;27.30;86.00
37310;DHT22;23195;47.744;7.358;2022-07-29T15:01:03;28.00;85.70
37310;DHT22;23195;47.744;7.358;2022-07-29T15:03:29;27.40;86.40
37310;DHT22;23195;47.744;7.358;2022-07-29T15:05:55;25.80;85.60
37310;DHT22;23195;47.744;7.358;2022-07-29T15:08:21;27.50;86.50
37310;DHT22;23195;47.744;7.358;2022-07-29T15:10:48;27.50;86.90
37310;DHT22;23195;47.744;7.358;2022-07-29T15:13:17;27.30;85.80
37310;DHT22;23195;47.744;7.358;2022-07-29T15:15:43;27.20;85.40
37310;DHT22;23195;47.744;7.358;2022-07-29T15:18:13;27.10;85.80
37310;DHT22;23195;47.744;7.358;2022-07-29T15:20:39;27.20;86.60
37310;DHT22;23195;47.744;7.358;2022-07-29T15:23:07;27.20;86.00
37310;DHT22;23195;47.744;7.358;2022-07-29T15:25:45;27.30;85.40
37310;DHT22;23195;47.744;7.358;2022-07-29T15:28:16;27.50;85.30
37310;DHT22;23195;47.744;7.358;2022-07-29T15:30:42;27.70;84.90
37310;DHT22;23195;47.744;7.358;2022-07-29T15:33:24;27.90;84.20
37310;DHT22;23195;47.744;7.358;2022-07-29T15:36:22;28.20;83.30
37310;DHT22;23195;47.744;7.358;2022-07-29T15:38:52;28.10;82.60
37310;DHT22;23195;47.744;7.358;2022-07-29T15:41:19;28.40;83.10
37310;DHT22;23195;47.744;7.358;2022-07-29T15:43:50;28.20;83.10
37310;DHT22;23195;47.744;7.358;2022-07-29T15:47:02;28.10;80.70
37310;DHT22;23195;47.744;7.358;2022-07-29T15:49:43;28.40;81.40
37310;DHT22;23195;47.744;7.358;2022-07-29T15:52:12;28.30;80.90
37310;DHT22;23195;47.744;7.358;2022-07-29T15:54:41;28.20;80.70
37310;DHT22;23195;47.744;7.358;2022-07-29T15:57:07;28.20;80.40
37310;DHT22;23195;47.744;7.358;2022-07-29T15:59:34;28.20;81.90
37310;DHT22;23195;47.744;7.358;2022-07-29T16:02:05;28.00;80.80
37310;DHT22;23195;47.744;7.358;2022-07-29T16:04:37;28.00;81.20
37310;DHT22;23195;47.744;7.358;2022-07-29T16:07:17;28.00;81.00
37310;DHT22;23195;47.744;7.358;2022-07-29T16:09:46;28.00;80.80
37310;DHT22;23195;47.744;7.358;2022-07-29T16:12:18;27.90;80.70
37310;DHT22;23195;47.744;7.358;2022-07-29T16:14:51;27.80;81.20
37310;DHT22;23195;47.744;7.358;2022-07-29T16:17:34;27.70;81.20
37310;DHT22;23195;47.744;7.358;2022-07-29T16:20:04;27.60;80.70
37310;DHT22;23195;47.744;7.358;2022-07-29T16:22:43;27.50;81.50
37310;DHT22;23195;47.744;7.358;2022-07-29T16:25:22;27.50;81.20
37310;DHT22;23195;47.744;7.358;2022-07-29T16:27:54;27.60;81.30
37310;DHT22;23195;47.744;7.358;2022-07-29T16:30:37;27.40;81.00
37310;DHT22;23195;47.744;7.358;2022-07-29T16:36:02;27.40;80.50
37310;DHT22;23195;47.744;7.358;2022-07-29T16:38:30;27.40;81.10
37310;DHT22;23195;47.744;7.358;2022-07-29T16:40:56;27.30;81.00
37310;DHT22;23195;47.744;7.358;2022-07-29T16:43:40;27.20;80.40
37310;DHT22;23195;47.744;7.358;2022-07-29T16:46:17;27.10;80.60
37310;DHT22;23195;47.744;7.358;2022-07-29T16:51:40;27.10;80.30
37310;DHT22;23195;47.744;7.358;2022-07-29T16:54:05;27.00;79.70
37310;DHT22;23195;47.744;7.358;2022-07-29T16:56:33;27.10;79.80
37310;DHT22;23195;47.744;7.358;2022-07-29T16:58:59;27.10;80.00
37310;DHT22;23195;47.744;7.358;2022-07-29T17:01:25;27.00;79.50
37310;DHT22;23195;47.744;7.358;2022-07-29T17:03:52;27.00;80.70
37310;DHT22;23195;47.744;7.358;2022-07-29T17:06:40;27.00;79.90
37310;DHT22;23195;47.744;7.358;2022-07-29T17:09:12;26.80;79.60
37310;DHT22;23195;47.744;7.358;2022-07-29T17:11:44;26.80;80.10
37310;DHT22;23195;47.744;7.358;2022-07-29T17:14:10;26.90;80.30
37310;DHT22;23195;47.744;7.358;2022-07-29T17:16:39;26.80;79.70
37310;DHT22;23195;47.744;7.358;2022-07-29T17:19:08;26.80;79.20
37310;DHT22;23195;47.744;7.358;2022-07-29T17:21:34;26.70;77.80
37310;DHT22;23195;47.744;7.358;2022-07-29T17:24:05;26.70;77.10
37310;DHT22;23195;47.744;7.358;2022-07-29T17:26:36;26.70;76.40
37310;DHT22;23195;47.744;7.358;2022-07-29T17:29:23;25.90;74.60
37310;DHT22;23195;47.744;7.358;2022-07-29T17:32:10;26.60;75.80
37310;DHT22;23195;47.744;7.358;2022-07-29T17:35:17;26.60;76.00
37310;DHT22;23195;47.744;7.358;2022-07-29T17:38:01;26.60;74.70
37310;DHT22;23195;47.744;7.358;2022-07-29T17:40:30;26.60;75.00
37310;DHT22;23195;47.744;7.358;2022-07-29T17:42:55;26.60;74.60
37310;DHT22;23195;47.744;7.358;2022-07-29T17:45:33;26.60;74.00
37310;DHT22;23195;47.744;7.358;2022-07-29T17:48:11;26.50;73.10
37310;DHT22;23195;47.744;7.358;2022-07-29T17:50:39;26.60;73.50
37310;DHT22;23195;47.744;7.358;2022-07-29T17:53:05;26.20;73.10
37310;DHT22;23195;47.744;7.358;2022-07-29T17:55:40;26.50;73.40
37310;DHT22;23195;47.744;7.358;2022-07-29T17:58:26;26.40;72.80
37310;DHT22;23195;47.744;7.358;2022-07-29T18:00:57;26.30;73.60
37310;DHT22;23195;47.744;7.358;2022-07-29T18:03:52;26.30;73.40
37310;DHT22;23195;47.744;7.358;2022-07-29T18:06:18;26.20;73.60
37310;DHT22;23195;47.744;7.358;2022-07-29T18:08:46;26.00;73.30
37310;DHT22;23195;47.744;7.358;2022-07-29T18:11:22;26.00;73.90
37310;DHT22;23195;47.744;7.358;2022-07-29T18:16:27;25.90;74.40
37310;DHT22;23195;47.744;7.358;2022-07-29T18:18:56;25.90;75.00
37310;DHT22;23195;47.744;7.358;2022-07-29T18:21:27;25.90;74.70
37310;DHT22;23195;47.744;7.358;2022-07-29T18:23:56;25.80;74.80
37310;DHT22;23195;47.744;7.358;2022-07-29T18:26:22;25.70;74.60
37310;DHT22;23195;47.744;7.358;2022-07-29T18:28:53;25.80;75.00
37310;DHT22;23195;47.744;7.358;2022-07-29T18:31:18;25.70;75.70
37310;DHT22;23195;47.744;7.358;2022-07-29T18:34:07;25.70;75.70
37310;DHT22;23195;47.744;7.358;2022-07-29T18:36:33;25.60;75.70
37310;DHT22;23195;47.744;7.358;2022-07-29T18:38:59;25.50;75.80
37310;DHT22;23195;47.744;7.358;2022-07-29T18:41:25;25.50;76.20
37310;DHT22;23195;47.744;7.358;2022-07-29T18:43:51;25.00;75.90
37310;DHT22;23195;47.744;7.358;2022-07-29T18:46:26;25.20;76.20
37310;DHT22;23195;47.744;7.358;2022-07-29T18:48:55;25.40;76.50
37310;DHT22;23195;47.744;7.358;2022-07-29T18:51:27;25.10;76.60
37310;DHT22;23195;47.744;7.358;2022-07-29T18:54:01;25.60;77.50
37310;DHT22;23195;47.744;7.358;2022-07-29T18:59:52;24.70;77.80
37310;DHT22;23195;47.744;7.358;2022-07-29T19:02:44;24.60;78.40
37310;DHT22;23195;47.744;7.358;2022-07-29T19:05:25;24.50;79.10